createdAt,value
2022-08-03T00:00:42.458Z,14.67
2022-08-03T00:03:11.672Z,14.60
2022-08-03T00:06:03.489Z,14.49
2022-08-03T00:08:31.511Z,14.33
2022-08-03T00:11:01.129Z,14.22
2022-08-03T00:13:31.083Z,14.14
2022-08-03T00:16:00.333Z,14.09
2022-08-03T00:18:29.715Z,14.07
2022-08-03T00:20:58.688Z,14.06
2022-08-03T00:23:30.515Z,14.06
2022-08-03T00:26:17.404Z,14.08
2022-08-03T00:28:47.097Z,14.09
2022-08-03T00:31:16.669Z,14.09
2022-08-03T00:33:57.955Z,14.07
2022-08-03T00:36:30.507Z,14.06
2022-08-03T00:39:00.003Z,14.02
2022-08-03T00:41:30.001Z,13.98
2022-08-03T00:43:59.506Z,13.96
2022-08-03T00:46:29.304Z,13.92
2022-08-03T00:48:58.442Z,13.89
2022-08-03T00:51:29.882Z,13.88
2022-08-03T00:54:00.135Z,13.86
2022-08-03T00:56:29.577Z,13.85
2022-08-03T00:58:59.925Z,13.81
2022-08-03T01:01:32.574Z,13.79
2022-08-03T01:04:03.126Z,13.79
2022-08-03T01:06:54.026Z,13.79
2022-08-03T01:09:24.419Z,13.73
2022-08-03T01:12:09.946Z,13.66
2022-08-03T01:14:54.078Z,13.57
2022-08-03T01:17:52.096Z,13.49
2022-08-03T01:20:25.290Z,13.44
2022-08-03T01:23:28.811Z,13.42
2022-08-03T01:26:37.301Z,13.41
2022-08-03T01:29:39.544Z,13.41
2022-08-03T01:32:53.426Z,13.40
2022-08-03T01:35:14.427Z,13.41
2022-08-03T01:37:59.526Z,13.40
2022-08-03T01:40:32.739Z,13.38
2022-08-03T01:43:05.699Z,13.34
2022-08-03T01:45:39.383Z,13.31
2022-08-03T01:48:11.804Z,13.26
2022-08-03T01:50:43.663Z,13.23
2022-08-03T01:53:18.902Z,13.22
2022-08-03T01:55:54.290Z,13.20
2022-08-03T01:58:28.601Z,13.18
2022-08-03T02:01:01.924Z,13.16
2022-08-03T02:03:35.901Z,13.14
2022-08-03T02:06:59.620Z,13.15
2022-08-03T02:09:02.401Z,13.14
2022-08-03T02:11:35.443Z,13.14
2022-08-03T02:14:08.538Z,13.12
2022-08-03T02:16:40.280Z,13.12
2022-08-03T02:19:12.335Z,13.13
2022-08-03T02:21:56.893Z,13.13
2022-08-03T02:24:32.269Z,13.08
2022-08-03T02:27:05.137Z,13.04
2022-08-03T02:29:40.848Z,12.98
2022-08-03T02:32:15.401Z,12.94
2022-08-03T02:34:50.013Z,12.89
2022-08-03T02:37:21.174Z,12.86
2022-08-03T02:39:54.406Z,12.86
2022-08-03T02:42:27.618Z,12.84
2022-08-03T02:45:03.388Z,12.84
2022-08-03T02:47:53.903Z,12.85
2022-08-03T02:50:27.036Z,12.86
2022-08-03T02:53:00.287Z,12.87
2022-08-03T02:55:31.352Z,12.86
2022-08-03T02:58:02.191Z,12.82
2022-08-03T03:00:33.769Z,12.73
2022-08-03T03:03:05.147Z,12.67
2022-08-03T03:05:54.625Z,12.64
2022-08-03T03:08:29.604Z,12.62
2022-08-03T03:11:01.463Z,12.60
2022-08-03T03:13:32.341Z,12.59
2022-08-03T03:16:07.032Z,12.59
2022-08-03T03:18:39.044Z,12.58
2022-08-03T03:21:10.951Z,12.55
2022-08-03T03:23:42.444Z,12.54
2022-08-03T03:26:15.633Z,12.53
2022-08-03T03:28:45.733Z,12.52
2022-08-03T03:31:15.701Z,12.55
2022-08-03T03:33:45.072Z,12.56
2022-08-03T03:36:15.164Z,12.58
2022-08-03T03:38:45.052Z,12.60
2022-08-03T03:41:16.356Z,12.60
2022-08-03T03:43:46.262Z,12.62
2022-08-03T03:46:19.045Z,12.64
2022-08-03T03:48:49.772Z,12.66
2022-08-03T03:51:20.003Z,12.70
2022-08-03T03:54:00.671Z,12.73
2022-08-03T03:56:30.394Z,12.80
2022-08-03T03:59:00.195Z,12.84
2022-08-03T04:01:30.143Z,12.87
2022-08-03T04:04:19.777Z,12.90
2022-08-03T04:07:07.417Z,12.92
2022-08-03T04:09:59.359Z,12.96
2022-08-03T04:12:49.939Z,13.04
2022-08-03T04:15:23.461Z,13.14
2022-08-03T04:17:54.772Z,13.24
2022-08-03T04:20:27.365Z,13.39
2022-08-03T04:23:00.551Z,13.62
2022-08-03T04:25:33.352Z,13.89
2022-08-03T04:28:29.253Z,14.17
2022-08-03T04:30:54.571Z,14.47
2022-08-03T04:33:29.701Z,14.65
2022-08-03T04:36:03.695Z,14.75
2022-08-03T04:38:51.122Z,14.82
2022-08-03T04:41:23.235Z,14.80
2022-08-03T04:43:56.811Z,14.88
2022-08-03T04:46:30.241Z,14.97
2022-08-03T04:49:00.256Z,15.02
2022-08-03T04:51:30.528Z,15.13
2022-08-03T04:54:01.581Z,15.25
2022-08-03T04:56:30.921Z,15.38
2022-08-03T04:58:59.774Z,15.53
2022-08-03T05:01:29.569Z,15.69
2022-08-03T05:03:58.968Z,15.84
2022-08-03T05:06:27.959Z,16.03
2022-08-03T05:08:56.544Z,16.22
2022-08-03T05:11:25.343Z,16.48
2022-08-03T05:13:54.539Z,16.65
2022-08-03T05:16:24.044Z,16.83
2022-08-03T05:18:53.422Z,17.20
2022-08-03T05:21:22.637Z,17.45
2022-08-03T05:23:51.647Z,17.86
2022-08-03T05:26:21.551Z,18.16
2022-08-03T05:28:51.503Z,18.48
2022-08-03T05:31:21.182Z,18.84
2022-08-03T05:33:50.970Z,19.12
2022-08-03T05:36:20.181Z,19.52
2022-08-03T05:38:49.380Z,19.80
2022-08-03T05:41:21.699Z,20.08
2022-08-03T05:43:54.414Z,20.40
2022-08-03T05:46:26.287Z,20.65
2022-08-03T05:48:57.229Z,20.75
2022-08-03T05:51:26.008Z,20.76
2022-08-03T05:53:54.646Z,20.83
2022-08-03T05:56:28.001Z,21.12
2022-08-03T05:59:07.344Z,21.56
2022-08-03T06:01:45.531Z,22.03
2022-08-03T06:04:14.531Z,22.32
2022-08-03T06:06:43.821Z,22.22
2022-08-03T06:09:12.807Z,22.06
2022-08-03T06:11:42.641Z,22.25
2022-08-03T06:14:14.767Z,22.19
2022-08-03T06:16:43.549Z,22.34
2022-08-03T06:19:12.990Z,22.56
2022-08-03T06:21:41.683Z,22.80
2022-08-03T06:24:11.998Z,22.81
2022-08-03T06:26:40.693Z,23.11
2022-08-03T06:29:09.929Z,23.32
2022-08-03T06:31:38.934Z,23.74
2022-08-03T06:34:33.789Z,23.78
2022-08-03T06:37:01.785Z,23.58
2022-08-03T06:39:31.244Z,23.88
2022-08-03T06:42:00.483Z,23.88
2022-08-03T06:44:29.238Z,24.08
2022-08-03T06:46:59.869Z,24.11
2022-08-03T06:49:28.715Z,24.34
2022-08-03T06:52:04.186Z,24.62
2022-08-03T06:54:36.400Z,24.52
2022-08-03T06:57:06.469Z,24.70
2022-08-03T07:00:06.399Z,24.78
2022-08-03T07:02:26.805Z,25.15
2022-08-03T07:04:58.152Z,25.22
2022-08-03T07:07:27.426Z,25.40
2022-08-03T07:09:58.049Z,25.72
2022-08-03T07:12:28.677Z,25.84
2022-08-03T07:15:02.186Z,25.87
2022-08-03T07:17:34.806Z,26.18
2022-08-03T07:20:06.974Z,26.65
2022-08-03T07:22:37.374Z,26.77
2022-08-03T07:25:06.641Z,26.61
2022-08-03T07:27:35.578Z,26.88
2022-08-03T07:30:08.778Z,27.22
2022-08-03T07:32:37.719Z,27.23
2022-08-03T07:35:24.410Z,26.92
2022-08-03T07:37:55.233Z,26.94
2022-08-03T07:40:28.160Z,26.94
2022-08-03T07:43:00.990Z,26.85
2022-08-03T07:45:30.465Z,26.76
2022-08-03T07:47:59.080Z,26.77
2022-08-03T07:50:27.761Z,26.82
2022-08-03T07:52:58.163Z,27.16
2022-08-03T07:55:28.294Z,27.81
2022-08-03T07:58:26.677Z,28.12
2022-08-03T08:00:55.744Z,28.62
2022-08-03T08:03:24.883Z,29.00
2022-08-03T08:05:54.143Z,29.36
2022-08-03T08:08:22.938Z,29.54
2022-08-03T08:10:58.383Z,29.54
2022-08-03T08:13:27.555Z,29.66
2022-08-03T08:15:58.147Z,29.84
2022-08-03T08:18:29.804Z,29.90
2022-08-03T08:20:58.749Z,30.37
2022-08-03T08:23:42.584Z,30.57
2022-08-03T08:26:13.386Z,30.62
2022-08-03T08:28:42.554Z,31.06
2022-08-03T08:31:11.338Z,31.42
2022-08-03T08:34:03.180Z,31.89
2022-08-03T08:36:29.174Z,32.24
2022-08-03T08:38:58.098Z,32.36
2022-08-03T08:41:32.071Z,32.28
2022-08-03T08:44:02.290Z,32.19
2022-08-03T08:46:34.704Z,32.14
2022-08-03T08:49:04.866Z,32.44
2022-08-03T08:51:59.310Z,32.69
2022-08-03T08:54:27.803Z,32.23
2022-08-03T08:56:59.689Z,31.09
2022-08-03T08:59:48.696Z,31.41
2022-08-03T09:02:18.259Z,31.31
2022-08-03T09:04:49.178Z,32.12
2022-08-03T09:07:20.295Z,32.37
2022-08-03T09:10:11.218Z,32.30
2022-08-03T09:12:42.951Z,32.36
2022-08-03T09:15:32.531Z,32.32
2022-08-03T09:18:03.767Z,32.53
2022-08-03T09:20:34.958Z,32.97
2022-08-03T09:23:44.739Z,32.89
2022-08-03T09:26:00.103Z,33.19
2022-08-03T09:29:00.712Z,33.52
2022-08-03T09:31:46.294Z,34.13
2022-08-03T09:34:20.796Z,34.40
2022-08-03T09:36:57.164Z,33.90
2022-08-03T09:39:43.146Z,34.03
2022-08-03T09:42:24.725Z,34.28
2022-08-03T09:45:06.964Z,34.32
2022-08-03T09:47:43.209Z,34.59
2022-08-03T09:50:20.245Z,34.89
2022-08-03T09:52:55.570Z,35.09
2022-08-03T09:56:34.856Z,34.70
2022-08-03T09:58:25.737Z,34.16
2022-08-03T10:01:03.154Z,34.20
2022-08-03T10:03:36.568Z,34.90
2022-08-03T10:06:28.994Z,35.61
2022-08-03T10:09:27.140Z,35.94
2022-08-03T10:11:58.406Z,35.67
2022-08-03T10:14:33.220Z,35.58
2022-08-03T10:17:06.907Z,36.09
2022-08-03T10:19:37.144Z,35.45
2022-08-03T10:22:23.907Z,34.79
2022-08-03T10:25:04.886Z,35.33
2022-08-03T10:27:43.014Z,35.56
2022-08-03T10:30:12.898Z,35.70
2022-08-03T10:32:58.852Z,35.71
2022-08-03T10:35:31.393Z,35.22
2022-08-03T10:38:33.361Z,35.71
2022-08-03T10:41:04.480Z,36.08
2022-08-03T10:43:59.489Z,36.14
2022-08-03T10:46:30.215Z,35.27
2022-08-03T10:49:00.643Z,35.54
2022-08-03T10:51:33.146Z,35.60
2022-08-03T10:54:02.488Z,35.34
2022-08-03T10:56:54.594Z,35.21
2022-08-03T10:59:46.436Z,35.34
2022-08-03T11:02:17.112Z,35.45
2022-08-03T11:05:31.763Z,35.47
2022-08-03T11:08:33.405Z,35.39
2022-08-03T11:11:29.628Z,35.45
2022-08-03T11:14:01.058Z,35.58
2022-08-03T11:17:14.096Z,35.79
2022-08-03T11:19:57.794Z,36.01
2022-08-03T11:22:50.084Z,36.18
2022-08-03T11:25:54.054Z,36.15
2022-08-03T11:28:39.845Z,36.21
2022-08-03T11:34:22.091Z,36.29
2022-08-03T11:37:33.162Z,36.37
2022-08-03T11:40:08.250Z,36.54
2022-08-03T11:42:36.786Z,36.01
2022-08-03T11:45:09.247Z,35.99
2022-08-03T11:47:50.764Z,35.06
2022-08-03T11:50:21.640Z,35.24
2022-08-03T11:52:50.940Z,35.41
2022-08-03T11:55:22.358Z,35.67
2022-08-03T11:59:01.644Z,35.47
2022-08-03T12:00:40.604Z,35.69
2022-08-03T12:03:14.780Z,35.85
2022-08-03T12:05:52.693Z,35.89
2022-08-03T12:08:27.205Z,35.81
2022-08-03T12:10:57.902Z,35.49
2022-08-03T12:14:36.660Z,35.66
2022-08-03T12:16:31.467Z,35.33
2022-08-03T12:19:07.157Z,35.21
2022-08-03T12:21:57.326Z,34.95
2022-08-03T12:24:28.911Z,34.26
2022-08-03T12:26:59.968Z,34.04
2022-08-03T12:29:29.751Z,33.78
2022-08-03T12:31:58.591Z,33.77
2022-08-03T12:35:01.012Z,33.67
2022-08-03T12:37:35.318Z,33.06
2022-08-03T12:40:10.576Z,32.52
2022-08-03T12:42:41.202Z,32.29
2022-08-03T12:45:29.472Z,32.66
2022-08-03T12:48:02.649Z,32.92
2022-08-03T12:50:35.149Z,33.07
2022-08-03T12:53:08.782Z,32.87
2022-08-03T12:56:04.319Z,33.02
2022-08-03T12:58:37.027Z,33.01
2022-08-03T13:01:09.290Z,33.06
2022-08-03T13:03:50.520Z,33.27
2022-08-03T13:06:26.937Z,33.42
2022-08-03T13:09:06.145Z,33.47
2022-08-03T13:11:57.995Z,33.47
2022-08-03T13:14:26.248Z,33.57
2022-08-03T13:16:55.781Z,33.72
2022-08-03T13:19:27.438Z,33.64
2022-08-03T13:22:04.384Z,33.38
2022-08-03T13:24:34.590Z,33.18
2022-08-03T13:28:02.366Z,33.06
2022-08-03T13:30:00.350Z,32.88
2022-08-03T13:32:29.520Z,32.77
2022-08-03T13:34:59.378Z,32.67
2022-08-03T13:37:29.121Z,32.46
2022-08-03T13:40:02.480Z,32.37
2022-08-03T13:42:34.258Z,32.21
2022-08-03T13:45:05.079Z,32.17
2022-08-03T13:47:35.770Z,32.24
2022-08-03T13:50:09.124Z,32.36
2022-08-03T13:52:39.190Z,32.41
2022-08-03T13:55:09.375Z,32.60
2022-08-03T13:58:11.809Z,32.48
2022-08-03T14:00:29.485Z,32.28
2022-08-03T14:03:12.633Z,32.15
2022-08-03T14:05:43.386Z,32.03
2022-08-03T14:08:12.787Z,31.89
2022-08-03T14:10:43.870Z,31.98
2022-08-03T14:13:16.879Z,31.99
2022-08-03T14:15:50.284Z,31.92
2022-08-03T14:18:28.734Z,31.83
2022-08-03T14:21:06.701Z,31.75
2022-08-03T14:23:38.706Z,31.65
2022-08-03T14:26:09.508Z,31.62
2022-08-03T14:28:41.672Z,31.55
2022-08-03T14:32:08.934Z,31.59
2022-08-03T14:34:00.926Z,31.58
2022-08-03T14:36:33.795Z,31.59
2022-08-03T14:39:05.682Z,31.58
2022-08-03T14:41:35.708Z,31.49
2022-08-03T14:44:05.334Z,31.38
2022-08-03T14:46:40.323Z,31.37
2022-08-03T14:50:35.702Z,31.33
2022-08-03T14:52:05.656Z,31.25
2022-08-03T14:54:40.229Z,31.20
2022-08-03T14:57:12.843Z,31.10
2022-08-03T14:59:56.659Z,31.01
2022-08-03T15:02:34.677Z,30.90
2022-08-03T15:05:05.644Z,30.86
2022-08-03T15:07:37.121Z,30.80
2022-08-03T15:10:27.117Z,30.71
2022-08-03T15:13:10.037Z,30.71
2022-08-03T15:15:41.741Z,30.75
2022-08-03T15:18:11.107Z,30.76
2022-08-03T15:20:46.182Z,30.73
2022-08-03T15:23:17.601Z,30.68
2022-08-03T15:26:28.605Z,30.63
2022-08-03T15:28:54.124Z,30.54
2022-08-03T15:31:29.677Z,30.24
2022-08-03T15:34:12.143Z,30.32
2022-08-03T15:36:53.189Z,30.35
2022-08-03T15:39:29.760Z,30.36
2022-08-03T15:42:10.152Z,30.32
2022-08-03T15:44:46.240Z,30.29
2022-08-03T15:47:24.636Z,30.24
2022-08-03T15:50:01.150Z,30.22
2022-08-03T15:52:37.273Z,30.20
2022-08-03T15:55:21.067Z,30.05
2022-08-03T15:59:09.686Z,29.92
2022-08-03T16:00:47.616Z,29.85
2022-08-03T16:03:16.570Z,29.78
2022-08-03T16:05:48.056Z,29.71
2022-08-03T16:08:22.322Z,29.68
2022-08-03T16:10:58.420Z,29.64
2022-08-03T16:14:14.118Z,29.57
2022-08-03T16:16:25.157Z,29.41
2022-08-03T16:18:55.678Z,29.34
2022-08-03T16:21:25.017Z,29.23
2022-08-03T16:24:00.983Z,29.13
2022-08-03T16:26:30.720Z,29.02
2022-08-03T16:29:03.911Z,28.95
2022-08-03T16:31:38.901Z,28.86
2022-08-03T16:34:21.857Z,28.78
2022-08-03T16:36:53.133Z,28.68
2022-08-03T16:39:22.554Z,28.61
2022-08-03T16:41:53.519Z,28.57
2022-08-03T16:44:32.139Z,28.51
2022-08-03T16:47:02.966Z,28.39
2022-08-03T16:49:54.467Z,28.28
2022-08-03T16:52:22.999Z,28.11
2022-08-03T16:54:54.631Z,27.99
2022-08-03T16:57:58.747Z,27.86
2022-08-03T17:00:32.801Z,27.71
2022-08-03T17:03:12.745Z,27.56
2022-08-03T17:05:52.242Z,27.43
2022-08-03T17:08:27.204Z,27.30
2022-08-03T17:11:01.213Z,27.14
2022-08-03T17:13:39.383Z,26.96
2022-08-03T17:16:10.956Z,26.69
2022-08-03T17:18:58.220Z,26.47
2022-08-03T17:21:34.108Z,26.22
2022-08-03T17:24:12.838Z,26.00
2022-08-03T17:26:44.808Z,25.79
2022-08-03T17:29:18.981Z,25.60
2022-08-03T17:31:55.353Z,25.40
2022-08-03T17:34:26.608Z,25.21
2022-08-03T17:37:05.106Z,25.02
2022-08-03T17:39:57.690Z,24.86
2022-08-03T17:42:30.959Z,24.68
2022-08-03T17:45:03.382Z,24.53
2022-08-03T17:47:42.774Z,24.36
2022-08-03T17:50:24.067Z,24.18
2022-08-03T17:53:07.833Z,24.02
2022-08-03T17:55:56.041Z,23.85
2022-08-03T17:58:58.653Z,23.68
2022-08-03T18:02:14.493Z,23.45
2022-08-03T18:05:16.739Z,23.24
2022-08-03T18:07:48.981Z,23.10
2022-08-03T18:10:35.588Z,23.01
2022-08-03T18:13:10.805Z,22.92
2022-08-03T18:16:02.923Z,22.81
2022-08-03T18:18:43.043Z,22.70
2022-08-03T18:21:17.081Z,22.61
2022-08-03T18:23:50.935Z,22.54
2022-08-03T18:26:21.299Z,22.46
2022-08-03T18:28:55.330Z,22.38
2022-08-03T18:31:59.944Z,22.27
2022-08-03T18:34:33.099Z,22.14
2022-08-03T18:37:07.668Z,22.02
2022-08-03T18:39:49.864Z,21.91
2022-08-03T18:42:25.592Z,21.79
2022-08-03T18:44:57.022Z,21.68
2022-08-03T18:47:53.127Z,21.56
2022-08-03T18:50:25.194Z,21.45
2022-08-03T18:52:57.323Z,21.38
2022-08-03T18:55:35.742Z,21.33
2022-08-03T18:58:07.644Z,21.30
2022-08-03T19:00:54.379Z,21.26
2022-08-03T19:03:41.559Z,21.19
2022-08-03T19:06:20.490Z,21.12
2022-08-03T19:08:58.392Z,21.05
2022-08-03T19:12:14.016Z,20.93
2022-08-03T19:14:43.685Z,20.81
2022-08-03T19:17:21.273Z,20.72
2022-08-03T19:19:54.303Z,20.62
2022-08-03T19:22:27.583Z,20.52
2022-08-03T19:24:59.133Z,20.43
2022-08-03T19:27:34.160Z,20.33
2022-08-03T19:30:19.970Z,20.23
2022-08-03T19:32:55.702Z,20.15
2022-08-03T19:35:51.836Z,20.06
2022-08-03T19:38:29.341Z,19.98
2022-08-03T19:41:03.540Z,19.87
2022-08-03T19:43:52.671Z,19.76
2022-08-03T19:46:30.495Z,19.66
2022-08-03T19:52:01.313Z,19.46
2022-08-03T19:54:53.266Z,19.38
2022-08-03T19:57:26.866Z,19.25
2022-08-03T19:59:57.611Z,19.16
2022-08-03T20:02:29.712Z,19.04
2022-08-03T20:05:00.563Z,18.92
2022-08-03T20:07:33.226Z,18.82
2022-08-03T20:10:04.965Z,18.63
2022-08-03T20:12:39.030Z,18.48
2022-08-03T20:15:09.567Z,18.38
2022-08-03T20:17:57.104Z,18.27
2022-08-03T20:20:31.216Z,18.22
2022-08-03T20:23:06.646Z,18.18
2022-08-03T20:25:48.726Z,18.14
2022-08-03T20:28:50.484Z,18.08
2022-08-03T20:31:32.380Z,18.01
2022-08-03T20:34:07.501Z,17.92
2022-08-03T20:36:38.254Z,17.81
2022-08-03T20:41:56.478Z,17.64
2022-08-03T20:44:26.049Z,17.56
2022-08-03T20:47:00.715Z,17.48
2022-08-03T20:49:30.398Z,17.43
2022-08-03T20:52:18.438Z,17.40
2022-08-03T20:54:48.758Z,17.41
2022-08-03T20:57:18.994Z,17.40
2022-08-03T20:59:51.498Z,17.41
2022-08-03T21:02:29.546Z,17.41
2022-08-03T21:05:03.416Z,17.44
2022-08-03T21:08:05.078Z,17.46
2022-08-03T21:10:41.980Z,17.47
2022-08-03T21:13:07.251Z,17.71
2022-08-03T21:13:09.724Z,19.56
2022-08-03T21:13:30.507Z,17.47
2022-08-03T21:16:13.136Z,17.46
2022-08-03T21:18:55.523Z,17.46
2022-08-03T21:21:27.112Z,17.42
2022-08-03T21:23:58.898Z,17.37
2022-08-03T21:26:32.539Z,17.33
2022-08-03T21:29:03.026Z,17.31
2022-08-03T21:31:33.463Z,17.28
2022-08-03T21:34:04.898Z,17.27
2022-08-03T21:36:36.487Z,17.26
2022-08-03T21:39:09.286Z,17.24
2022-08-03T21:41:40.391Z,17.22
2022-08-03T21:44:10.399Z,17.20
2022-08-03T21:46:43.184Z,17.20
2022-08-03T21:49:52.010Z,17.18
2022-08-03T21:52:06.727Z,17.15
2022-08-03T21:54:38.165Z,17.14
2022-08-03T21:57:25.739Z,17.13
2022-08-03T22:00:27.086Z,17.11
2022-08-03T22:02:58.094Z,17.08
2022-08-03T22:05:42.688Z,17.04
2022-08-03T22:08:14.265Z,17.03
2022-08-03T22:10:47.453Z,17.04
2022-08-03T22:13:44.271Z,17.04
2022-08-03T22:16:09.788Z,17.03
2022-08-03T22:18:40.318Z,17.02
2022-08-03T22:21:12.061Z,17.00
2022-08-03T22:23:48.878Z,16.94
2022-08-03T22:26:35.527Z,16.89
2022-08-03T22:29:08.609Z,16.81
2022-08-03T22:31:58.394Z,16.74
2022-08-03T22:34:29.380Z,16.68
2022-08-03T22:37:03.575Z,16.64
2022-08-03T22:39:33.200Z,16.63
2022-08-03T22:42:06.279Z,16.60
2022-08-03T22:44:36.548Z,16.57
2022-08-03T22:47:06.698Z,16.54
2022-08-03T22:49:37.180Z,16.50
2022-08-03T22:52:08.773Z,16.46
2022-08-03T22:54:38.774Z,16.42
2022-08-03T22:57:08.946Z,16.38
2022-08-03T22:59:40.174Z,16.34
2022-08-03T23:02:21.755Z,16.31
2022-08-03T23:04:53.651Z,16.28
2022-08-03T23:07:31.437Z,16.25
2022-08-03T23:10:03.221Z,16.23
2022-08-03T23:12:35.692Z,16.21
2022-08-03T23:15:09.202Z,16.20
2022-08-03T23:17:57.480Z,16.18
2022-08-03T23:20:29.193Z,16.16
2022-08-03T23:22:58.573Z,16.13
2022-08-03T23:25:28.371Z,16.12
2022-08-03T23:28:05.432Z,16.12
2022-08-03T23:30:38.746Z,16.11
2022-08-03T23:33:10.583Z,16.11
2022-08-03T23:36:29.368Z,16.09
2022-08-03T23:38:50.545Z,16.09
2022-08-03T23:41:20.636Z,16.08
2022-08-03T23:43:54.254Z,16.06
2022-08-03T23:46:26.505Z,16.04
2022-08-03T23:49:00.018Z,15.98
2022-08-03T23:51:40.336Z,15.94
2022-08-03T23:54:38.344Z,15.89
2022-08-03T23:57:28.804Z,15.86
